sensor_id;sensor_type;location;lat;lon;timestamp;pressure;altitude;pressure_sealevel;temperature;humidity
41312;BME280;27061;41.648;24.568;2023-05-07T00:00:22;86105.00;;;11.54;81.69
41312;BME280;27061;41.648;24.568;2023-05-07T00:02:49;86101.56;;;11.52;82.18
41312;BME280;27061;41.648;24.568;2023-05-07T00:05:17;86053.50;;;11.14;81.81
41312;BME280;27061;41.648;24.568;2023-05-07T00:07:44;86067.91;;;11.27;81.66
41312;BME280;27061;41.648;24.568;2023-05-07T00:10:12;86121.50;;;11.64;82.43
41312;BME280;27061;41.648;24.568;2023-05-07T00:12:40;86076.22;;;11.25;84.01
41312;BME280;27061;41.648;24.568;2023-05-07T00:15:07;86099.50;;;11.50;83.93
41312;BME280;27061;41.648;24.568;2023-05-07T00:17:35;86122.09;;;11.75;82.42
41312;BME280;27061;41.648;24.568;2023-05-07T00:20:03;86062.28;;;11.33;81.79
41312;BME280;27061;41.648;24.568;2023-05-07T00:22:31;86125.53;;;11.78;80.80
41312;BME280;27061;41.648;24.568;2023-05-07T00:24:59;86114.63;;;11.61;80.64
41312;BME280;27061;41.648;24.568;2023-05-07T00:27:26;86125.59;;;11.69;81.42
41312;BME280;27061;41.648;24.568;2023-05-07T00:29:54;86083.09;;;11.30;82.19
41312;BME280;27061;41.648;24.568;2023-05-07T00:32:21;86081.69;;;11.33;82.58
41312;BME280;27061;41.648;24.568;2023-05-07T00:34:48;86112.59;;;11.56;83.46
41312;BME280;27061;41.648;24.568;2023-05-07T00:37:15;86099.53;;;11.48;82.87
41312;BME280;27061;41.648;24.568;2023-05-07T00:39:42;86102.28;;;11.48;81.99
41312;BME280;27061;41.648;24.568;2023-05-07T00:42:09;85979.28;;;10.63;81.91
41312;BME280;27061;41.648;24.568;2023-05-07T00:44:36;86058.28;;;11.22;82.80
41312;BME280;27061;41.648;24.568;2023-05-07T00:47:04;86072.06;;;11.24;83.72
41312;BME280;27061;41.648;24.568;2023-05-07T00:49:39;86078.94;;;11.31;83.43
41312;BME280;27061;41.648;24.568;2023-05-07T00:52:11;86122.88;;;11.65;83.58
41312;BME280;27061;41.648;24.568;2023-05-07T00:54:38;86121.44;;;11.70;83.25
41312;BME280;27061;41.648;24.568;2023-05-07T00:57:09;86124.97;;;11.65;82.54
41312;BME280;27061;41.648;24.568;2023-05-07T00:59:38;86051.44;;;11.13;82.34
41312;BME280;27061;41.648;24.568;2023-05-07T01:02:06;86079.03;;;11.23;80.98
41312;BME280;27061;41.648;24.568;2023-05-07T01:04:34;86049.97;;;11.20;79.78
41312;BME280;27061;41.648;24.568;2023-05-07T01:07:02;86105.03;;;11.50;79.72
41312;BME280;27061;41.648;24.568;2023-05-07T01:09:30;86136.41;;;11.94;78.03
41312;BME280;27061;41.648;24.568;2023-05-07T01:11:58;86078.03;;;11.49;78.16
41312;BME280;27061;41.648;24.568;2023-05-07T01:14:25;86087.06;;;11.47;78.79
41312;BME280;27061;41.648;24.568;2023-05-07T01:16:53;86126.88;;;11.81;78.42
41312;BME280;27061;41.648;24.568;2023-05-07T01:19:23;86126.91;;;11.79;78.74
41312;BME280;27061;41.648;24.568;2023-05-07T01:21:50;86118.00;;;11.68;79.87
41312;BME280;27061;41.648;24.568;2023-05-07T01:24:20;86132.53;;;11.70;80.07
41312;BME280;27061;41.648;24.568;2023-05-07T01:26:47;86096.13;;;11.44;80.52
41312;BME280;27061;41.648;24.568;2023-05-07T01:29:16;86098.81;;;11.50;81.01
41312;BME280;27061;41.648;24.568;2023-05-07T01:31:46;86106.28;;;11.63;79.35
41312;BME280;27061;41.648;24.568;2023-05-07T01:34:15;86085.69;;;11.44;80.06
41312;BME280;27061;41.648;24.568;2023-05-07T01:36:44;86128.34;;;11.76;80.40
41312;BME280;27061;41.648;24.568;2023-05-07T01:39:12;86083.00;;;11.38;80.74
41312;BME280;27061;41.648;24.568;2023-05-07T01:41:39;86121.38;;;11.74;80.67
41312;BME280;27061;41.648;24.568;2023-05-07T01:44:07;86039.00;;;11.10;80.81
41312;BME280;27061;41.648;24.568;2023-05-07T01:46:35;86123.53;;;11.68;80.38
41312;BME280;27061;41.648;24.568;2023-05-07T01:49:03;85947.69;;;10.42;80.23
41312;BME280;27061;41.648;24.568;2023-05-07T01:51:31;86118.69;;;11.68;80.05
41312;BME280;27061;41.648;24.568;2023-05-07T01:53:58;86039.69;;;11.10;80.48
41312;BME280;27061;41.648;24.568;2023-05-07T01:56:25;86054.75;;;11.25;80.53
41312;BME280;27061;41.648;24.568;2023-05-07T01:58:53;86087.88;;;11.37;80.82
41312;BME280;27061;41.648;24.568;2023-05-07T02:01:21;86096.81;;;11.42;83.22
41312;BME280;27061;41.648;24.568;2023-05-07T02:03:49;86118.78;;;11.60;83.33
41312;BME280;27061;41.648;24.568;2023-05-07T02:06:22;86089.94;;;11.37;81.40
41312;BME280;27061;41.648;24.568;2023-05-07T02:08:51;86059.00;;;11.18;80.73
41312;BME280;27061;41.648;24.568;2023-05-07T02:11:18;86081.63;;;11.39;81.14
41312;BME280;27061;41.648;24.568;2023-05-07T02:13:45;86092.56;;;11.49;80.97
41312;BME280;27061;41.648;24.568;2023-05-07T02:16:13;86098.00;;;11.57;80.47
41312;BME280;27061;41.648;24.568;2023-05-07T02:18:41;86118.75;;;11.62;80.59
41312;BME280;27061;41.648;24.568;2023-05-07T02:21:08;86065.13;;;11.25;80.13
41312;BME280;27061;41.648;24.568;2023-05-07T02:23:35;86052.09;;;11.13;80.12
41312;BME280;27061;41.648;24.568;2023-05-07T02:26:03;86091.25;;;11.44;79.95
41312;BME280;27061;41.648;24.568;2023-05-07T02:28:32;86110.56;;;11.54;78.89
41312;BME280;27061;41.648;24.568;2023-05-07T02:31:04;86100.97;;;11.43;79.27
41312;BME280;27061;41.648;24.568;2023-05-07T02:33:32;86060.44;;;11.13;78.43
41312;BME280;27061;41.648;24.568;2023-05-07T02:36:09;86080.34;;;11.30;78.45
41312;BME280;27061;41.648;24.568;2023-05-07T02:38:54;85954.00;;;10.33;78.56
41312;BME280;27061;41.648;24.568;2023-05-07T02:41:21;86020.56;;;10.88;78.26
41312;BME280;27061;41.648;24.568;2023-05-07T02:43:48;86041.84;;;11.04;77.56
41312;BME280;27061;41.648;24.568;2023-05-07T02:46:16;86059.72;;;11.13;77.22
41312;BME280;27061;41.648;24.568;2023-05-07T02:48:47;86093.47;;;11.33;76.70
41312;BME280;27061;41.648;24.568;2023-05-07T02:51:14;86098.38;;;11.29;75.36
41312;BME280;27061;41.648;24.568;2023-05-07T02:53:42;86032.53;;;10.68;75.68
41312;BME280;27061;41.648;24.568;2023-05-07T02:56:10;86038.00;;;10.76;76.13
41312;BME280;27061;41.648;24.568;2023-05-07T02:58:37;86101.94;;;11.19;76.25
41312;BME280;27061;41.648;24.568;2023-05-07T03:01:07;86099.19;;;11.15;75.54
41312;BME280;27061;41.648;24.568;2023-05-07T03:03:41;86049.88;;;10.67;75.12
41312;BME280;27061;41.648;24.568;2023-05-07T03:06:08;86099.28;;;11.09;76.56
41312;BME280;27061;41.648;24.568;2023-05-07T03:08:35;86084.06;;;11.06;76.43
41312;BME280;27061;41.648;24.568;2023-05-07T03:11:03;86057.31;;;10.82;76.91
41312;BME280;27061;41.648;24.568;2023-05-07T03:13:30;86069.75;;;10.85;78.07
41312;BME280;27061;41.648;24.568;2023-05-07T03:15:57;86085.53;;;10.97;78.47
41312;BME280;27061;41.648;24.568;2023-05-07T03:18:24;86091.00;;;11.05;79.56
41312;BME280;27061;41.648;24.568;2023-05-07T03:20:52;86106.88;;;11.11;79.99
41312;BME280;27061;41.648;24.568;2023-05-07T03:23:19;86097.31;;;10.99;80.91
41312;BME280;27061;41.648;24.568;2023-05-07T03:25:50;85927.06;;;9.53;80.57
41312;BME280;27061;41.648;24.568;2023-05-07T03:28:17;86027.50;;;10.13;81.07
41312;BME280;27061;41.648;24.568;2023-05-07T03:30:53;85971.91;;;9.62;81.77
41312;BME280;27061;41.648;24.568;2023-05-07T03:33:20;86107.91;;;10.79;82.25
41312;BME280;27061;41.648;24.568;2023-05-07T03:35:48;86096.13;;;10.80;80.90
41312;BME280;27061;41.648;24.568;2023-05-07T03:38:20;85945.00;;;9.59;78.63
41312;BME280;27061;41.648;24.568;2023-05-07T03:40:47;86087.13;;;10.78;78.08
41312;BME280;27061;41.648;24.568;2023-05-07T03:43:14;86042.47;;;10.45;78.31
41312;BME280;27061;41.648;24.568;2023-05-07T03:45:46;86089.94;;;10.74;77.75
41312;BME280;27061;41.648;24.568;2023-05-07T03:48:19;86107.78;;;10.89;77.63
41312;BME280;27061;41.648;24.568;2023-05-07T03:50:47;86037.69;;;10.37;77.69
41312;BME280;27061;41.648;24.568;2023-05-07T03:53:16;86114.13;;;10.79;78.03
41312;BME280;27061;41.648;24.568;2023-05-07T03:55:43;86020.66;;;10.06;77.21
41312;BME280;27061;41.648;24.568;2023-05-07T03:58:11;86045.47;;;10.12;76.89
41312;BME280;27061;41.648;24.568;2023-05-07T04:00:38;86086.81;;;10.37;77.49
41312;BME280;27061;41.648;24.568;2023-05-07T04:03:24;86087.44;;;10.43;77.48
41312;BME280;27061;41.648;24.568;2023-05-07T04:05:52;86089.47;;;10.49;77.99
41312;BME280;27061;41.648;24.568;2023-05-07T04:08:20;86059.91;;;10.27;77.80
41312;BME280;27061;41.648;24.568;2023-05-07T04:10:55;86077.16;;;10.32;79.80
41312;BME280;27061;41.648;24.568;2023-05-07T04:13:25;86088.22;;;10.36;80.02
41312;BME280;27061;41.648;24.568;2023-05-07T04:15:54;86104.63;;;10.56;79.71
41312;BME280;27061;41.648;24.568;2023-05-07T04:18:21;86102.03;;;10.38;79.79
41312;BME280;27061;41.648;24.568;2023-05-07T04:20:49;86115.81;;;10.44;82.38
41312;BME280;27061;41.648;24.568;2023-05-07T04:23:16;86096.53;;;10.34;82.64
41312;BME280;27061;41.648;24.568;2023-05-07T04:25:44;86089.53;;;10.41;82.31
41312;BME280;27061;41.648;24.568;2023-05-07T04:28:26;86093.69;;;10.40;82.34
41312;BME280;27061;41.648;24.568;2023-05-07T04:30:54;86099.19;;;10.48;83.04
41312;BME280;27061;41.648;24.568;2023-05-07T04:33:21;86120.50;;;10.61;83.29
41312;BME280;27061;41.648;24.568;2023-05-07T04:35:49;86093.59;;;10.52;84.28
41312;BME280;27061;41.648;24.568;2023-05-07T04:38:17;86097.72;;;10.57;84.74
41312;BME280;27061;41.648;24.568;2023-05-07T04:40:47;86015.22;;;9.90;84.57
41312;BME280;27061;41.648;24.568;2023-05-07T04:43:19;86066.78;;;10.32;85.03
41312;BME280;27061;41.648;24.568;2023-05-07T04:45:52;86119.00;;;10.75;86.08
41312;BME280;27061;41.648;24.568;2023-05-07T04:48:22;86105.91;;;10.69;87.77
41312;BME280;27061;41.648;24.568;2023-05-07T04:50:51;86081.09;;;10.57;89.22
41312;BME280;27061;41.648;24.568;2023-05-07T04:53:19;86116.84;;;10.81;89.62
41312;BME280;27061;41.648;24.568;2023-05-07T04:55:48;86061.78;;;10.49;90.45
41312;BME280;27061;41.648;24.568;2023-05-07T04:58:16;86053.53;;;10.45;92.33
41312;BME280;27061;41.648;24.568;2023-05-07T05:00:45;86035.63;;;10.34;95.64
41312;BME280;27061;41.648;24.568;2023-05-07T05:03:13;86049.31;;;10.52;95.60
41312;BME280;27061;41.648;24.568;2023-05-07T05:05:41;86060.94;;;10.64;93.95
41312;BME280;27061;41.648;24.568;2023-05-07T05:08:08;86124.81;;;11.16;93.47
41312;BME280;27061;41.648;24.568;2023-05-07T05:10:37;86083.50;;;10.93;97.15
41312;BME280;27061;41.648;24.568;2023-05-07T05:13:06;86109.66;;;11.09;97.95
41312;BME280;27061;41.648;24.568;2023-05-07T05:15:33;86090.38;;;10.98;99.43
41312;BME280;27061;41.648;24.568;2023-05-07T05:18:01;86094.34;;;11.16;98.85
41312;BME280;27061;41.648;24.568;2023-05-07T05:20:29;86110.59;;;11.48;96.97
41312;BME280;27061;41.648;24.568;2023-05-07T05:22:57;86044.69;;;10.97;97.33
41312;BME280;27061;41.648;24.568;2023-05-07T05:25:24;86094.13;;;11.36;97.35
41312;BME280;27061;41.648;24.568;2023-05-07T05:27:51;86106.34;;;11.55;98.87
41312;BME280;27061;41.648;24.568;2023-05-07T05:30:19;86074.06;;;11.33;98.93
41312;BME280;27061;41.648;24.568;2023-05-07T05:32:48;86111.75;;;11.67;99.41
41312;BME280;27061;41.648;24.568;2023-05-07T05:35:15;86119.25;;;11.81;99.72
41312;BME280;27061;41.648;24.568;2023-05-07T05:37:43;86138.41;;;12.01;98.99
41312;BME280;27061;41.648;24.568;2023-05-07T05:40:11;86092.28;;;11.73;99.12
41312;BME280;27061;41.648;24.568;2023-05-07T05:42:38;86120.41;;;11.98;98.81
41312;BME280;27061;41.648;24.568;2023-05-07T05:45:07;86109.97;;;12.01;99.27
41312;BME280;27061;41.648;24.568;2023-05-07T05:47:35;86143.53;;;12.30;98.35
41312;BME280;27061;41.648;24.568;2023-05-07T05:50:02;86146.94;;;12.36;98.03
41312;BME280;27061;41.648;24.568;2023-05-07T05:52:29;86143.47;;;12.36;97.84
41312;BME280;27061;41.648;24.568;2023-05-07T05:54:56;86121.31;;;12.32;97.92
41312;BME280;27061;41.648;24.568;2023-05-07T05:57:24;86059.34;;;11.98;98.39
41312;BME280;27061;41.648;24.568;2023-05-07T05:59:54;86110.78;;;12.40;100.00
41312;BME280;27061;41.648;24.568;2023-05-07T06:02:23;86137.34;;;12.74;100.00
41312;BME280;27061;41.648;24.568;2023-05-07T06:04:50;86111.78;;;12.66;99.29
41312;BME280;27061;41.648;24.568;2023-05-07T06:07:19;86128.88;;;12.82;99.89
41312;BME280;27061;41.648;24.568;2023-05-07T06:09:46;86077.97;;;12.51;99.47
41312;BME280;27061;41.648;24.568;2023-05-07T06:12:14;86125.19;;;12.94;98.99
41312;BME280;27061;41.648;24.568;2023-05-07T06:14:43;86092.72;;;12.84;98.17
41312;BME280;27061;41.648;24.568;2023-05-07T06:17:11;86103.47;;;13.05;97.12
41312;BME280;27061;41.648;24.568;2023-05-07T06:19:38;86126.69;;;13.30;95.23
41312;BME280;27061;41.648;24.568;2023-05-07T06:22:05;86103.84;;;13.26;88.38
41312;BME280;27061;41.648;24.568;2023-05-07T06:24:34;86096.25;;;13.24;85.42
41312;BME280;27061;41.648;24.568;2023-05-07T06:27:05;86135.91;;;13.57;85.91
41312;BME280;27061;41.648;24.568;2023-05-07T06:29:32;86122.78;;;13.54;84.21
41312;BME280;27061;41.648;24.568;2023-05-07T06:32:19;86143.06;;;13.85;76.30
41312;BME280;27061;41.648;24.568;2023-05-07T06:34:46;86152.44;;;14.03;72.19
41312;BME280;27061;41.648;24.568;2023-05-07T06:37:14;86114.66;;;13.79;77.05
41312;BME280;27061;41.648;24.568;2023-05-07T06:39:52;86061.03;;;13.47;78.94
41312;BME280;27061;41.648;24.568;2023-05-07T06:42:20;86145.25;;;14.14;72.06
41312;BME280;27061;41.648;24.568;2023-05-07T06:44:48;86105.34;;;13.92;75.66
41312;BME280;27061;41.648;24.568;2023-05-07T06:47:16;86095.53;;;13.96;76.63
41312;BME280;27061;41.648;24.568;2023-05-07T06:49:48;86122.34;;;14.11;78.00
41312;BME280;27061;41.648;24.568;2023-05-07T06:52:18;86156.66;;;14.35;72.07
41312;BME280;27061;41.648;24.568;2023-05-07T06:54:47;86157.72;;;14.52;72.61
41312;BME280;27061;41.648;24.568;2023-05-07T06:57:16;86154.88;;;14.54;77.73
41312;BME280;27061;41.648;24.568;2023-05-07T06:59:43;86149.09;;;14.64;71.32
41312;BME280;27061;41.648;24.568;2023-05-07T07:02:11;86155.22;;;14.71;72.91
41312;BME280;27061;41.648;24.568;2023-05-07T07:04:38;86117.28;;;14.53;73.25
41312;BME280;27061;41.648;24.568;2023-05-07T07:07:09;86146.63;;;14.81;67.70
41312;BME280;27061;41.648;24.568;2023-05-07T07:09:37;86169.97;;;14.96;73.50
41312;BME280;27061;41.648;24.568;2023-05-07T07:12:05;86158.25;;;14.91;71.43
41312;BME280;27061;41.648;24.568;2023-05-07T07:14:35;86175.91;;;15.11;69.83
41312;BME280;27061;41.648;24.568;2023-05-07T07:17:02;86170.91;;;15.15;68.71
41312;BME280;27061;41.648;24.568;2023-05-07T07:19:32;86134.97;;;15.03;67.10
41312;BME280;27061;41.648;24.568;2023-05-07T07:22:01;86140.81;;;14.91;69.67
41312;BME280;27061;41.648;24.568;2023-05-07T07:24:28;86126.72;;;14.97;68.72
41312;BME280;27061;41.648;24.568;2023-05-07T07:26:58;86103.41;;;14.82;70.09
41312;BME280;27061;41.648;24.568;2023-05-07T07:29:26;86149.09;;;14.95;60.46
41312;BME280;27061;41.648;24.568;2023-05-07T07:31:54;86188.72;;;15.28;63.38
41312;BME280;27061;41.648;24.568;2023-05-07T07:34:21;86123.84;;;15.01;64.73
41312;BME280;27061;41.648;24.568;2023-05-07T07:36:49;86180.03;;;15.43;66.76
41312;BME280;27061;41.648;24.568;2023-05-07T07:39:18;86192.00;;;15.37;67.58
41312;BME280;27061;41.648;24.568;2023-05-07T07:41:51;86161.00;;;15.22;59.84
41312;BME280;27061;41.648;24.568;2023-05-07T07:44:20;86190.47;;;15.44;66.77
41312;BME280;27061;41.648;24.568;2023-05-07T07:46:51;86167.44;;;15.44;63.97
41312;BME280;27061;41.648;24.568;2023-05-07T07:49:21;86170.66;;;15.56;64.96
41312;BME280;27061;41.648;24.568;2023-05-07T07:51:48;86168.97;;;15.67;60.66
41312;BME280;27061;41.648;24.568;2023-05-07T07:54:16;86207.78;;;16.04;64.45
41312;BME280;27061;41.648;24.568;2023-05-07T07:56:43;86200.69;;;16.09;58.73
41312;BME280;27061;41.648;24.568;2023-05-07T07:59:12;86151.13;;;15.83;61.92
41312;BME280;27061;41.648;24.568;2023-05-07T08:01:49;86197.69;;;16.18;62.53
41312;BME280;27061;41.648;24.568;2023-05-07T08:04:23;86181.97;;;16.04;55.95
41312;BME280;27061;41.648;24.568;2023-05-07T08:06:50;86145.00;;;16.03;54.09
41312;BME280;27061;41.648;24.568;2023-05-07T08:09:18;86187.66;;;16.27;54.96
41312;BME280;27061;41.648;24.568;2023-05-07T08:11:46;86188.56;;;16.19;53.89
41312;BME280;27061;41.648;24.568;2023-05-07T08:14:13;86162.19;;;16.12;55.98
41312;BME280;27061;41.648;24.568;2023-05-07T08:16:45;86123.78;;;15.88;55.47
41312;BME280;27061;41.648;24.568;2023-05-07T08:19:12;86194.09;;;16.46;49.21
41312;BME280;27061;41.648;24.568;2023-05-07T08:21:40;86197.75;;;16.40;51.57
41312;BME280;27061;41.648;24.568;2023-05-07T08:24:09;86199.88;;;16.40;52.53
41312;BME280;27061;41.648;24.568;2023-05-07T08:26:36;86187.75;;;16.23;63.25
41312;BME280;27061;41.648;24.568;2023-05-07T08:29:07;86147.03;;;16.05;58.19
41312;BME280;27061;41.648;24.568;2023-05-07T08:31:34;86160.31;;;16.04;57.77
41312;BME280;27061;41.648;24.568;2023-05-07T08:34:03;86197.81;;;16.38;59.75
41312;BME280;27061;41.648;24.568;2023-05-07T08:36:30;86201.44;;;16.33;61.12
41312;BME280;27061;41.648;24.568;2023-05-07T08:38:58;86207.16;;;16.29;59.54
41312;BME280;27061;41.648;24.568;2023-05-07T08:41:25;86164.75;;;15.95;58.57
41312;BME280;27061;41.648;24.568;2023-05-07T08:43:55;86173.84;;;16.21;53.44
41312;BME280;27061;41.648;24.568;2023-05-07T08:46:25;86195.47;;;16.47;53.26
41312;BME280;27061;41.648;24.568;2023-05-07T08:48:55;86197.88;;;16.61;56.88
41312;BME280;27061;41.648;24.568;2023-05-07T08:51:22;86183.59;;;16.46;53.67
41312;BME280;27061;41.648;24.568;2023-05-07T08:53:49;86195.13;;;16.59;59.19
41312;BME280;27061;41.648;24.568;2023-05-07T08:56:24;86179.09;;;16.58;58.04
41312;BME280;27061;41.648;24.568;2023-05-07T08:58:53;86183.91;;;16.61;57.84
41312;BME280;27061;41.648;24.568;2023-05-07T09:01:27;86121.56;;;16.17;59.20
41312;BME280;27061;41.648;24.568;2023-05-07T09:03:55;86187.16;;;16.70;59.38
41312;BME280;27061;41.648;24.568;2023-05-07T09:06:23;86186.81;;;16.57;59.36
41312;BME280;27061;41.648;24.568;2023-05-07T09:08:51;86203.16;;;16.73;58.18
41312;BME280;27061;41.648;24.568;2023-05-07T09:11:20;86207.06;;;16.82;58.74
41312;BME280;27061;41.648;24.568;2023-05-07T09:13:53;86185.16;;;16.66;57.39
41312;BME280;27061;41.648;24.568;2023-05-07T09:16:22;86190.50;;;16.74;58.55
41312;BME280;27061;41.648;24.568;2023-05-07T09:18:54;86188.88;;;16.83;58.64
41312;BME280;27061;41.648;24.568;2023-05-07T09:21:22;86199.09;;;16.93;58.26
41312;BME280;27061;41.648;24.568;2023-05-07T09:23:54;86194.09;;;16.96;56.86
41312;BME280;27061;41.648;24.568;2023-05-07T09:26:27;86154.00;;;16.80;60.25
41312;BME280;27061;41.648;24.568;2023-05-07T09:28:55;86190.56;;;17.20;57.94
41312;BME280;27061;41.648;24.568;2023-05-07T09:31:22;86191.81;;;17.25;54.38
41312;BME280;27061;41.648;24.568;2023-05-07T09:34:18;86186.09;;;17.29;56.61
41312;BME280;27061;41.648;24.568;2023-05-07T09:36:47;86144.25;;;17.02;55.77
41312;BME280;27061;41.648;24.568;2023-05-07T09:39:14;86168.19;;;17.20;56.11
41312;BME280;27061;41.648;24.568;2023-05-07T09:41:45;86180.81;;;17.42;55.63
41312;BME280;27061;41.648;24.568;2023-05-07T09:44:19;86186.41;;;17.42;49.29
41312;BME280;27061;41.648;24.568;2023-05-07T09:46:54;86167.59;;;17.61;49.34
41312;BME280;27061;41.648;24.568;2023-05-07T09:49:29;86179.75;;;17.53;54.00
41312;BME280;27061;41.648;24.568;2023-05-07T09:52:04;86177.16;;;17.47;52.17
41312;BME280;27061;41.648;24.568;2023-05-07T09:54:40;86153.63;;;17.38;56.23
41312;BME280;27061;41.648;24.568;2023-05-07T09:57:11;86162.16;;;17.34;57.83
41312;BME280;27061;41.648;24.568;2023-05-07T09:59:43;86158.69;;;17.34;58.96
41312;BME280;27061;41.648;24.568;2023-05-07T10:02:14;86174.81;;;17.54;57.63
41312;BME280;27061;41.648;24.568;2023-05-07T10:04:48;86166.81;;;17.65;57.65
41312;BME280;27061;41.648;24.568;2023-05-07T10:07:21;86168.19;;;17.66;56.25
41312;BME280;27061;41.648;24.568;2023-05-07T10:09:51;86152.56;;;17.50;55.47
41312;BME280;27061;41.648;24.568;2023-05-07T10:12:29;86162.19;;;17.78;59.16
41312;BME280;27061;41.648;24.568;2023-05-07T10:15:07;86162.31;;;17.95;56.86
41312;BME280;27061;41.648;24.568;2023-05-07T10:17:38;86054.97;;;17.17;49.55
41312;BME280;27061;41.648;24.568;2023-05-07T10:20:07;86158.78;;;17.96;49.83
41312;BME280;27061;41.648;24.568;2023-05-07T10:22:41;86151.81;;;17.95;51.38
41312;BME280;27061;41.648;24.568;2023-05-07T10:25:14;86161.28;;;18.04;52.89
41312;BME280;27061;41.648;24.568;2023-05-07T10:27:42;86102.72;;;17.54;55.19
41312;BME280;27061;41.648;24.568;2023-05-07T10:30:53;86160.75;;;18.00;54.38
41312;BME280;27061;41.648;24.568;2023-05-07T10:33:35;86162.94;;;17.97;55.46
41312;BME280;27061;41.648;24.568;2023-05-07T10:36:05;86158.72;;;17.98;56.92
41312;BME280;27061;41.648;24.568;2023-05-07T10:38:35;86085.88;;;17.36;54.73
41312;BME280;27061;41.648;24.568;2023-05-07T10:41:02;86082.50;;;17.52;54.22
41312;BME280;27061;41.648;24.568;2023-05-07T10:43:43;86168.25;;;18.05;54.20
41312;BME280;27061;41.648;24.568;2023-05-07T10:46:31;86163.00;;;18.16;50.31
41312;BME280;27061;41.648;24.568;2023-05-07T10:49:19;86119.44;;;18.00;49.95
41312;BME280;27061;41.648;24.568;2023-05-07T10:52:17;86147.44;;;18.21;52.59
41312;BME280;27061;41.648;24.568;2023-05-07T10:58:29;86158.75;;;18.17;53.80
41312;BME280;27061;41.648;24.568;2023-05-07T11:01:53;86159.72;;;18.09;54.96
41312;BME280;27061;41.648;24.568;2023-05-07T11:04:45;86166.84;;;18.06;54.52
41312;BME280;27061;41.648;24.568;2023-05-07T11:07:33;86141.41;;;17.91;55.72
41312;BME280;27061;41.648;24.568;2023-05-07T11:10:11;86129.75;;;17.85;54.47
41312;BME280;27061;41.648;24.568;2023-05-07T11:12:59;86167.91;;;18.15;53.51
41312;BME280;27061;41.648;24.568;2023-05-07T11:15:48;86155.91;;;18.19;53.51
41312;BME280;27061;41.648;24.568;2023-05-07T11:21:36;86158.13;;;18.35;49.19
41312;BME280;27061;41.648;24.568;2023-05-07T11:24:23;86096.06;;;17.87;57.13
41312;BME280;27061;41.648;24.568;2023-05-07T11:27:12;86152.09;;;18.47;48.32
41312;BME280;27061;41.648;24.568;2023-05-07T11:29:46;86115.66;;;18.47;50.48
41312;BME280;27061;41.648;24.568;2023-05-07T11:32:14;86144.06;;;18.56;49.78
41312;BME280;27061;41.648;24.568;2023-05-07T11:34:51;86145.16;;;18.65;49.11
41312;BME280;27061;41.648;24.568;2023-05-07T11:37:20;86127.41;;;18.52;50.02
41312;BME280;27061;41.648;24.568;2023-05-07T11:40:08;86150.41;;;18.36;44.56
41312;BME280;27061;41.648;24.568;2023-05-07T11:42:39;86150.47;;;18.34;47.66
41312;BME280;27061;41.648;24.568;2023-05-07T11:45:07;86139.53;;;18.25;49.54
41312;BME280;27061;41.648;24.568;2023-05-07T11:47:35;86099.34;;;17.73;49.26
41312;BME280;27061;41.648;24.568;2023-05-07T11:50:07;86076.66;;;17.81;54.71
41312;BME280;27061;41.648;24.568;2023-05-07T11:52:35;86139.81;;;18.38;55.01
41312;BME280;27061;41.648;24.568;2023-05-07T11:55:02;86065.19;;;17.89;51.80
41312;BME280;27061;41.648;24.568;2023-05-07T11:57:33;86140.25;;;18.45;51.87
41312;BME280;27061;41.648;24.568;2023-05-07T12:00:01;86152.72;;;18.50;54.37
41312;BME280;27061;41.648;24.568;2023-05-07T12:02:38;86153.91;;;18.55;53.18
41312;BME280;27061;41.648;24.568;2023-05-07T12:05:05;86144.34;;;18.69;54.89
41312;BME280;27061;41.648;24.568;2023-05-07T12:07:36;86083.75;;;18.38;53.66
41312;BME280;27061;41.648;24.568;2023-05-07T12:10:06;86116.97;;;18.69;45.97
41312;BME280;27061;41.648;24.568;2023-05-07T12:12:40;86086.25;;;18.46;47.95
41312;BME280;27061;41.648;24.568;2023-05-07T12:15:09;86119.97;;;18.84;52.42
41312;BME280;27061;41.648;24.568;2023-05-07T12:17:37;86145.88;;;19.03;46.64
41312;BME280;27061;41.648;24.568;2023-05-07T12:20:05;86143.00;;;19.05;45.36
41312;BME280;27061;41.648;24.568;2023-05-07T12:22:32;86149.88;;;19.08;47.76
41312;BME280;27061;41.648;24.568;2023-05-07T12:24:59;86135.03;;;19.12;48.27
41312;BME280;27061;41.648;24.568;2023-05-07T12:27:27;86132.44;;;19.24;50.78
41312;BME280;27061;41.648;24.568;2023-05-07T12:29:57;86130.69;;;19.33;48.61
41312;BME280;27061;41.648;24.568;2023-05-07T12:32:24;86080.41;;;19.09;46.46
41312;BME280;27061;41.648;24.568;2023-05-07T12:34:52;86080.81;;;19.17;46.27
41312;BME280;27061;41.648;24.568;2023-05-07T12:37:25;86102.19;;;19.27;45.24
41312;BME280;27061;41.648;24.568;2023-05-07T12:40:09;86073.75;;;18.99;45.18
41312;BME280;27061;41.648;24.568;2023-05-07T12:42:37;86128.56;;;19.34;47.92
41312;BME280;27061;41.648;24.568;2023-05-07T12:45:11;86130.00;;;19.33;44.15
41312;BME280;27061;41.648;24.568;2023-05-07T12:47:44;86124.66;;;19.44;45.65
41312;BME280;27061;41.648;24.568;2023-05-07T12:50:15;86115.72;;;19.39;43.86
41312;BME280;27061;41.648;24.568;2023-05-07T12:52:44;86114.88;;;19.43;38.63
41312;BME280;27061;41.648;24.568;2023-05-07T12:55:14;86118.69;;;19.54;39.59
41312;BME280;27061;41.648;24.568;2023-05-07T12:57:43;86103.63;;;19.61;38.47
41312;BME280;27061;41.648;24.568;2023-05-07T13:00:12;86101.00;;;19.57;38.54
41312;BME280;27061;41.648;24.568;2023-05-07T13:02:41;86056.41;;;19.49;38.83
41312;BME280;27061;41.648;24.568;2023-05-07T13:05:11;86100.16;;;19.78;46.35
41312;BME280;27061;41.648;24.568;2023-05-07T13:07:39;86063.53;;;19.63;49.60
41312;BME280;27061;41.648;24.568;2023-05-07T13:10:07;86069.44;;;19.73;49.75
41312;BME280;27061;41.648;24.568;2023-05-07T13:12:35;86090.72;;;19.85;47.44